Time,TemperatureF,DewpointF,PressureIn,WindDirection,WindDirectionDegrees,WindSpeedMPH,WindSpeedGustMPH,Humidity,HourlyPrecipIn,Conditions,Clouds,dailyrainin,SolarRadiationWatts/m^2,SoftwareType,DateUTC
2013-02-15 00:32:00,32.0,-99.9,-100.00,NW,312,9.0,12.0,0,-99.99,,,0.00,0.000000,,2013-02-15 06:32:00,
2013-02-15 01:42:00,32.0,-99.9,-100.00,NW,317,5.0,12.0,0,-99.99,,,0.00,0.000000,,2013-02-15 07:42:00,
2013-02-15 01:52:00,32.0,-99.9,-100.00,NW,317,5.0,12.0,0,-99.99,,,0.00,0.000000,,2013-02-15 07:52:00,
2013-02-15 02:32:00,32.0,-99.9,-100.00,NW,321,5.0,10.0,0,-99.99,,,0.00,0.000000,,2013-02-15 08:32:00,
2013-02-15 03:42:00,32.0,-99.9,-100.00,NW,322,7.0,9.0,0,-99.99,,,0.00,0.000000,,2013-02-15 09:42:00,
2013-02-15 03:52:00,32.0,-99.9,-100.00,NW,322,7.0,9.0,0,-99.99,,,0.00,0.000000,,2013-02-15 09:52:00,
2013-02-15 04:42:00,32.0,-99.9,-100.00,NW,321,7.0,10.0,0,-99.99,,,0.00,0.000000,,2013-02-15 10:42:00,
2013-02-15 04:52:00,32.0,-99.9,-100.00,NW,321,7.0,10.0,0,-99.99,,,0.00,0.000000,,2013-02-15 10:52:00,
2013-02-15 05:32:00,32.0,-99.9,-100.00,NW,308,5.0,9.0,0,-99.99,,,0.00,0.000000,,2013-02-15 11:32:00,
2013-02-15 06:32:00,32.0,-99.9,-100.00,NNW,336,4.0,7.0,0,-99.99,,,0.00,0.000000,,2013-02-15 12:32:00,
2013-02-15 07:42:00,32.0,-99.9,-100.00,NNW,340,2.0,5.0,0,-99.99,,,-99.99,0.000000,,2013-02-15 13:42:00,
2013-02-15 07:52:00,32.0,-99.9,-100.00,NNW,340,2.0,5.0,0,-99.99,,,-99.99,0.000000,,2013-02-15 13:52:00,
2013-02-15 08:42:00,32.0,-99.9,-100.00,NW,311,4.0,6.0,0,-99.99,,,0.00,11.000000,,2013-02-15 14:42:00,
2013-02-15 08:52:00,32.0,-99.9,-100.00,NW,311,4.0,6.0,0,-99.99,,,0.00,11.000000,,2013-02-15 14:52:00,
2013-02-15 09:32:00,32.0,-99.9,-100.00,NW,319,5.0,11.0,0,-99.99,,,0.00,110.000000,,2013-02-15 15:32:00,
2013-02-15 10:32:00,32.0,-99.9,-100.00,West,269,4.0,8.0,0,-99.99,,,0.00,166.000000,,2013-02-15 16:32:00,
2013-02-15 11:32:00,32.0,-99.9,-100.00,NNW,335,3.0,6.0,0,-99.99,,,0.00,199.000000,,2013-02-15 17:32:00,
2013-02-15 12:11:00,32.0,-99.9,-100.00,NNE,12,4.0,8.0,0,-99.99,,,0.00,250.000000,,2013-02-15 18:11:00,
2013-02-15 12:42:00,32.0,-99.9,-100.00,NNE,12,4.0,8.0,0,-99.99,,,0.00,250.000000,,2013-02-15 18:42:00,
2013-02-15 12:53:00,32.0,-99.9,-100.00,NNE,12,4.0,8.0,0,-99.99,,,0.00,250.000000,,2013-02-15 18:53:00,
2013-02-15 13:02:00,32.0,-99.9,-100.00,NNE,12,4.0,8.0,0,-99.99,,,0.00,250.000000,,2013-02-15 19:02:00,
2013-02-15 13:11:00,32.0,-99.9,-100.00,West,264,3.0,7.0,0,0.00,,,0.00,221.000000,,2013-02-15 19:11:00,
2013-02-15 13:42:00,32.0,-99.9,-100.00,West,264,3.0,7.0,0,0.00,,,0.00,221.000000,,2013-02-15 19:42:00,
2013-02-15 13:52:00,32.0,-99.9,-100.00,West,264,3.0,7.0,0,0.00,,,0.00,221.000000,,2013-02-15 19:52:00,
2013-02-15 14:02:00,32.0,-99.9,-100.00,West,264,3.0,7.0,0,0.00,,,0.00,221.000000,,2013-02-15 20:02:00,
2013-02-15 14:11:00,32.0,-99.9,-100.00,NW,320,3.0,7.0,0,0.00,,,0.00,156.000000,,2013-02-15 20:11:00,
2013-02-15 14:43:00,32.0,-99.9,-100.00,NW,320,3.0,7.0,0,0.00,,,0.00,156.000000,,2013-02-15 20:43:00,
2013-02-15 14:53:00,32.0,-99.9,-100.00,NW,320,3.0,7.0,0,0.00,,,0.00,156.000000,,2013-02-15 20:53:00,
2013-02-15 15:02:00,32.0,-99.9,-100.00,NW,320,3.0,7.0,0,0.00,,,0.00,156.000000,,2013-02-15 21:02:00,
2013-02-15 15:11:00,32.0,-99.9,-100.00,North,9,7.0,10.0,0,0.00,,,0.00,164.000000,,2013-02-15 21:11:00,
2013-02-15 15:42:00,32.0,-99.9,-100.00,North,9,7.0,10.0,0,0.00,,,0.00,164.000000,,2013-02-15 21:42:00,
2013-02-15 15:52:00,32.0,-99.9,-100.00,North,9,7.0,10.0,0,0.00,,,0.00,164.000000,,2013-02-15 21:52:00,
2013-02-15 16:42:00,32.0,-99.9,-100.00,NNW,344,6.0,12.0,0,-99.99,,,0.00,186.000000,,2013-02-15 22:42:00,
2013-02-15 16:52:00,32.0,-99.9,-100.00,NNW,344,6.0,12.0,0,-99.99,,,0.00,186.000000,,2013-02-15 22:52:00,
2013-02-15 17:32:00,32.0,-99.9,-100.00,NNE,20,9.0,12.0,0,0.00,,,0.00,64.000000,,2013-02-15 23:32:00,
2013-02-15 18:32:00,32.0,-99.9,-100.00,NNE,16,9.0,15.0,0,-99.99,,,0.00,8.000000,,2013-02-16 00:32:00,
2013-02-15 19:32:00,32.0,-99.9,-100.00,NNE,14,6.0,11.0,0,-99.99,,,-99.99,0.000000,,2013-02-16 01:32:00,
2013-02-15 20:42:00,32.0,-99.9,-100.00,North,359,2.0,6.0,0,-99.99,,,0.00,0.000000,,2013-02-16 02:42:00,
2013-02-15 20:52:00,32.0,-99.9,-100.00,North,359,2.0,6.0,0,-99.99,,,0.00,0.000000,,2013-02-16 02:52:00,
2013-02-15 21:42:00,32.0,-99.9,-100.00,NNW,343,3.0,5.0,0,-99.99,,,0.00,0.000000,,2013-02-16 03:42:00,
2013-02-15 21:52:00,32.0,-99.9,-100.00,NNW,343,3.0,5.0,0,-99.99,,,0.00,0.000000,,2013-02-16 03:52:00,
2013-02-15 22:32:00,32.0,-99.9,-100.00,NNW,336,3.0,5.0,0,-99.99,,,0.00,0.000000,,2013-02-16 04:32:00,
2013-02-15 23:32:00,32.0,-99.9,-100.00,SSE,149,0.0,5.0,0,-99.99,,,-99.99,0.000000,,2013-02-16 05:32:00,